Time;durP1;ratioP1;P1;durP2;ratioP2;P2;SDS_P1;SDS_P2;PMS_P1;PMS_P2;Temp;Humidity;BMP_temperature;BMP_pressure;BME280_temperature;BME280_humidity;BME280_pressure;Samples;Min_cycle;Max_cycle;Signal;HPM_P1;HPM_P2
2021/12/17 00:01:10;;;;;;;5.10;4.00;;;8.80;99.90;;;;;;5051525;28;20208;-73
2021/12/17 00:03:44;;;;;;;5.87;4.30;;;8.80;99.90;;;;;;5029810;28;20466;-72
2021/12/17 00:06:18;;;;;;;4.70;4.20;;;8.80;99.90;;;;;;5035424;28;20873;-72
2021/12/17 00:08:50;;;;;;;4.13;3.30;;;8.80;99.90;;;;;;5049723;28;20462;-73
2021/12/17 00:11:20;;;;;;;4.83;3.73;;;8.80;99.90;;;;;;5035733;28;20848;-72
2021/12/17 00:13:53;;;;;;;4.67;3.77;;;8.80;99.90;;;;;;5036648;28;20533;-73
2021/12/17 00:16:25;;;;;;;3.80;3.40;;;8.80;99.90;;;;;;5051262;28;20487;-73
2021/12/17 00:19:04;;;;;;;6.73;4.73;;;8.80;99.90;;;;;;5040662;28;20493;-74
2021/12/17 00:49:17;;;;;;;4.87;4.23;;;8.80;99.90;;;;;;5018944;28;20538;-73
2021/12/17 00:54:36;;;;;;;5.80;4.60;;;8.80;99.90;;;;;;5026149;28;20537;-73
2021/12/17 00:57:12;;;;;;;7.07;4.50;;;8.80;99.90;;;;;;5014660;28;20441;-73
2021/12/17 00:59:42;;;;;;;5.47;4.80;;;8.80;99.90;;;;;;5012393;28;20487;-73
2021/12/17 01:02:13;;;;;;;4.87;4.37;;;8.80;99.90;;;;;;5026856;28;20434;-73
2021/12/17 01:04:45;;;;;;;4.40;3.63;;;8.80;99.90;;;;;;5045844;28;20503;-73
2021/12/17 01:07:14;;;;;;;6.40;4.70;;;8.80;99.90;;;;;;5026360;28;20444;-73
2021/12/17 01:09:45;;;;;;;5.30;4.07;;;8.80;99.90;;;;;;5019563;28;20992;-73
2021/12/17 01:12:13;;;;;;;5.27;4.77;;;8.80;99.90;;;;;;5024923;28;20439;-73
2021/12/17 01:14:52;;;;;;;6.57;3.75;;;8.80;99.90;;;;;;5003291;28;20899;-73
2021/12/17 01:17:50;;;;;;;6.37;4.70;;;8.80;99.90;;;;;;5035855;28;20210;-74
2021/12/17 01:20:47;;;;;;;4.73;3.77;;;8.80;99.90;;;;;;5033022;28;20484;-73
2021/12/17 01:23:43;;;;;;;4.93;3.63;;;8.80;99.90;;;;;;5007165;28;20479;-73
2021/12/17 01:35:32;;;;;;;5.43;3.90;;;8.80;99.90;;;;;;5020035;28;20496;-73
2021/12/17 01:41:12;;;;;;;7.73;6.00;;;8.80;99.90;;;;;;4991619;28;20565;-73
2021/12/17 01:43:45;;;;;;;4.90;4.30;;;8.80;99.90;;;;;;5045575;28;20515;-72
2021/12/17 01:46:16;;;;;;;6.30;4.90;;;8.80;99.90;;;;;;5022667;28;20432;-73
2021/12/17 01:48:58;;;;;;;5.67;4.77;;;8.80;99.90;;;;;;5035246;28;20524;-73
2021/12/17 01:59:45;;;;;;;4.83;4.43;;;8.80;99.90;;;;;;5030137;28;20569;-73
2021/12/17 02:02:14;;;;;;;6.70;4.63;;;8.80;99.90;;;;;;4997781;28;20532;-73
2021/12/17 02:04:43;;;;;;;7.33;6.17;;;8.80;99.90;;;;;;5043360;28;20570;-73
2021/12/17 02:07:13;;;;;;;6.03;4.90;;;8.80;99.90;;;;;;5020377;28;20435;-73
2021/12/17 02:12:58;;;;;;;6.77;5.43;;;8.80;99.90;;;;;;5048558;28;20534;-73
2021/12/17 02:32:40;;;;;;;6.23;5.37;;;8.80;99.90;;;;;;4980414;28;20449;-73
2021/12/17 02:35:24;;;;;;;6.97;5.77;;;8.80;99.90;;;;;;5035049;28;20476;-72
2021/12/17 02:37:55;;;;;;;6.47;4.70;;;8.80;99.90;;;;;;5040461;28;20467;-73
2021/12/17 02:46:25;;;;;;;6.97;5.40;;;8.80;99.90;;;;;;5025126;28;20432;-73
2021/12/17 02:48:56;;;;;;;8.57;6.80;;;8.80;99.90;;;;;;5014710;28;20473;-73
2021/12/17 02:51:26;;;;;;;7.80;6.03;;;8.80;99.90;;;;;;5051697;28;21006;-72
2021/12/17 02:53:56;;;;;;;6.17;5.37;;;8.80;99.90;;;;;;5051225;28;20505;-72
2021/12/17 02:56:24;;;;;;;7.57;6.20;;;8.80;99.90;;;;;;5031259;28;20566;-73
2021/12/17 02:58:54;;;;;;;11.48;6.78;;;8.80;99.90;;;;;;5035475;28;20470;-73
2021/12/17 03:01:24;;;;;;;10.27;6.40;;;8.80;99.90;;;;;;5035034;28;20212;-72
2021/12/17 03:03:54;;;;;;;8.60;6.47;;;8.80;99.90;;;;;;5021369;28;20478;-73
2021/12/17 03:06:22;;;;;;;9.17;7.30;;;8.80;99.90;;;;;;5014112;28;20195;-73
2021/12/17 03:08:50;;;;;;;8.27;5.90;;;8.80;99.90;;;;;;5022916;28;20471;-73
2021/12/17 03:11:21;;;;;;;10.07;7.60;;;8.80;99.90;;;;;;5020550;28;20558;-73
2021/12/17 03:13:50;;;;;;;8.90;7.07;;;8.80;99.90;;;;;;5021295;28;20471;-73
2021/12/17 03:16:29;;;;;;;8.37;6.30;;;8.90;99.90;;;;;;5022692;28;20585;-74
2021/12/17 03:19:04;;;;;;;10.10;7.80;;;8.80;99.90;;;;;;5031639;28;20841;-72
2021/12/17 03:24:18;;;;;;;12.57;8.40;;;8.80;99.90;;;;;;5026899;28;20471;-73
2021/12/17 03:26:48;;;;;;;12.03;7.67;;;8.80;99.90;;;;;;5024949;28;20452;-73
2021/12/17 03:29:18;;;;;;;9.30;7.20;;;8.80;99.90;;;;;;5030199;28;20474;-72
2021/12/17 03:31:50;;;;;;;10.47;7.50;;;8.80;99.90;;;;;;5041853;28;20964;-72
2021/12/17 03:34:19;;;;;;;10.03;7.13;;;8.80;99.90;;;;;;5043175;28;20784;-73
2021/12/17 03:36:53;;;;;;;10.43;7.00;;;8.80;99.90;;;;;;5014733;28;20573;-73
2021/12/17 03:39:24;;;;;;;9.30;7.40;;;8.80;99.90;;;;;;5030603;28;20491;-73
2021/12/17 03:41:56;;;;;;;9.40;6.83;;;8.90;99.90;;;;;;5041019;28;20444;-72
2021/12/17 03:44:32;;;;;;;11.07;8.00;;;8.80;99.90;;;;;;5032318;28;20486;-73
2021/12/17 03:47:01;;;;;;;9.70;7.00;;;8.80;99.90;;;;;;5049477;28;20431;-73
2021/12/17 03:49:37;;;;;;;9.47;7.00;;;8.80;99.90;;;;;;5014447;28;20471;-72
2021/12/17 03:52:08;;;;;;;8.00;6.53;;;8.90;99.90;;;;;;5014505;28;21124;-73
2021/12/17 03:54:39;;;;;;;13.00;8.73;;;8.80;99.90;;;;;;5036619;28;20475;-73
2021/12/17 03:57:13;;;;;;;11.20;7.80;;;8.80;99.90;;;;;;4995119;28;20476;-73
2021/12/17 03:59:45;;;;;;;11.00;7.30;;;8.80;99.90;;;;;;5000878;28;20993;-72
2021/12/17 04:02:17;;;;;;;11.53;8.00;;;8.80;99.90;;;;;;5014009;28;20492;-73
2021/12/17 04:04:45;;;;;;;11.03;7.90;;;8.80;99.90;;;;;;5036067;28;20989;-73
2021/12/17 04:07:46;;;;;;;9.57;7.27;;;8.80;99.90;;;;;;4995265;28;20530;-74
2021/12/17 04:10:41;;;;;;;12.30;8.20;;;8.80;99.90;;;;;;5001192;28;20451;-74
2021/12/17 04:13:25;;;;;;;11.53;7.97;;;8.80;99.90;;;;;;5012866;28;20467;-74
2021/12/17 04:16:02;;;;;;;9.27;6.67;;;8.80;99.90;;;;;;5000922;28;20822;-72
2021/12/17 04:18:31;;;;;;;11.33;7.87;;;8.80;99.90;;;;;;5043378;28;20470;-72
2021/12/17 04:21:02;;;;;;;10.67;6.73;;;8.80;99.90;;;;;;5005456;28;20482;-73
2021/12/17 04:23:32;;;;;;;9.20;7.03;;;8.80;99.90;;;;;;5016658;28;20456;-73
2021/12/17 04:26:00;;;;;;;10.43;8.23;;;8.80;99.90;;;;;;5011934;28;20479;-73
2021/12/17 04:28:30;;;;;;;10.10;7.63;;;8.80;99.90;;;;;;5042565;28;21005;-72
2021/12/17 04:31:00;;;;;;;11.77;8.23;;;8.80;99.90;;;;;;5010557;28;20455;-74
2021/12/17 04:33:34;;;;;;;9.87;7.57;;;8.80;99.90;;;;;;5012735;28;20464;-73
2021/12/17 04:36:02;;;;;;;12.33;8.03;;;8.80;99.90;;;;;;5039077;28;20455;-73
2021/12/17 04:38:30;;;;;;;12.33;8.70;;;8.80;99.90;;;;;;5014571;28;20463;-73
2021/12/17 04:41:15;;;;;;;9.90;7.20;;;8.80;99.90;;;;;;5034335;28;20460;-73
2021/12/17 04:43:57;;;;;;;9.70;7.80;;;8.80;99.90;;;;;;5016573;28;20463;-73
2021/12/17 04:46:31;;;;;;;11.17;7.73;;;8.80;99.90;;;;;;5017552;28;20955;-72
2021/12/17 04:57:28;;;;;;;12.27;8.00;;;8.80;99.90;;;;;;4998456;28;20486;-73
2021/12/17 05:00:01;;;;;;;10.80;7.30;;;8.80;99.90;;;;;;5013977;28;20482;-73
2021/12/17 05:02:32;;;;;;;10.17;7.53;;;8.80;99.90;;;;;;5011697;28;20443;-74
2021/12/17 05:05:09;;;;;;;11.03;7.30;;;8.80;99.90;;;;;;5016867;28;20455;-73
2021/12/17 05:07:47;;;;;;;11.43;7.93;;;8.80;99.90;;;;;;5031442;28;20449;-72
2021/12/17 05:10:24;;;;;;;7.90;6.40;;;8.80;99.90;;;;;;5040297;28;20451;-73
2021/12/17 05:18:26;;;;;;;10.80;7.77;;;8.80;99.90;;;;;;5032459;28;20464;-73
2021/12/17 05:21:03;;;;;;;10.43;7.77;;;8.80;99.90;;;;;;5017492;28;20472;-73
2021/12/17 05:23:42;;;;;;;11.07;7.10;;;8.80;99.90;;;;;;5019792;28;20486;-73
2021/12/17 05:26:14;;;;;;;9.57;6.80;;;8.80;99.90;;;;;;5029018;28;20715;-73
2021/12/17 05:28:48;;;;;;;8.93;7.40;;;8.80;99.90;;;;;;5028047;28;20679;-73
2021/12/17 05:31:21;;;;;;;10.93;8.17;;;8.80;99.90;;;;;;5017892;28;20957;-73
2021/12/17 05:33:56;;;;;;;10.30;7.60;;;8.80;99.90;;;;;;5023521;28;20558;-72
2021/12/17 05:36:29;;;;;;;10.07;7.70;;;8.80;99.90;;;;;;5027156;28;21045;-73
2021/12/17 05:39:10;;;;;;;8.93;7.10;;;8.80;99.90;;;;;;5024458;28;20474;-72
2021/12/17 05:41:41;;;;;;;11.07;7.50;;;8.80;99.90;;;;;;5036373;28;20797;-73
2021/12/17 05:44:35;;;;;;;11.50;8.67;;;8.80;99.90;;;;;;5009304;28;20850;-73
2021/12/17 05:47:06;;;;;;;11.90;7.77;;;8.80;99.90;;;;;;5016319;28;20435;-73
2021/12/17 05:49:34;;;;;;;9.57;6.80;;;8.80;99.90;;;;;;5024096;28;20475;-73
2021/12/17 05:52:04;;;;;;;11.77;8.10;;;8.80;99.90;;;;;;5017248;28;22088;-72
2021/12/17 05:54:34;;;;;;;10.43;8.33;;;8.80;99.90;;;;;;5012233;28;20843;-72
2021/12/17 05:57:04;;;;;;;11.07;7.67;;;8.80;99.90;;;;;;5039040;28;20468;-73
2021/12/17 05:59:35;;;;;;;9.93;7.80;;;8.80;99.90;;;;;;5031938;28;20478;-73
2021/12/17 06:02:11;;;;;;;10.30;7.50;;;8.80;99.90;;;;;;5048505;28;20439;-74
2021/12/17 06:04:44;;;;;;;10.13;6.20;;;8.80;99.90;;;;;;4999265;28;20578;-74
2021/12/17 06:07:12;;;;;;;9.30;7.20;;;8.90;99.90;;;;;;5005003;28;20476;-74
2021/12/17 06:09:43;;;;;;;12.03;7.37;;;8.80;99.90;;;;;;5012088;28;20538;-73
2021/12/17 06:12:17;;;;;;;8.00;6.50;;;8.80;99.90;;;;;;5023479;28;20884;-73
2021/12/17 06:14:45;;;;;;;9.93;7.50;;;8.80;99.90;;;;;;5021939;28;20475;-73
2021/12/17 06:17:15;;;;;;;11.03;8.10;;;8.80;99.90;;;;;;5015601;28;20458;-73
2021/12/17 06:19:46;;;;;;;10.73;6.83;;;8.80;99.90;;;;;;5017593;28;20472;-73
2021/12/17 06:22:15;;;;;;;12.53;7.80;;;8.80;99.90;;;;;;5011864;28;20491;-73
2021/12/17 06:24:46;;;;;;;8.27;7.10;;;8.80;99.90;;;;;;5025875;28;20834;-73
2021/12/17 06:27:17;;;;;;;10.00;7.63;;;8.80;99.90;;;;;;5013098;28;20445;-73
2021/12/17 06:29:46;;;;;;;8.83;6.93;;;8.80;99.90;;;;;;5013883;28;20480;-73
2021/12/17 06:32:19;;;;;;;6.80;6.10;;;8.80;99.90;;;;;;5048763;28;20442;-74
2021/12/17 06:34:48;;;;;;;8.57;6.57;;;8.80;99.90;;;;;;5034095;28;20806;-73
2021/12/17 06:37:17;;;;;;;8.30;7.27;;;8.80;99.90;;;;;;5020885;28;20470;-73
2021/12/17 06:39:47;;;;;;;9.47;6.43;;;8.80;99.90;;;;;;5013864;28;20476;-72
2021/12/17 06:42:19;;;;;;;9.90;6.80;;;8.80;99.90;;;;;;5041051;28;20971;-73
2021/12/17 06:44:48;;;;;;;7.47;6.67;;;8.80;99.90;;;;;;5023143;28;21062;-73
2021/12/17 06:47:28;;;;;;;9.00;6.50;;;8.80;99.90;;;;;;5048215;28;20535;-73
2021/12/17 06:54:34;;;;;;;9.73;6.77;;;8.80;99.90;;;;;;5028650;28;20475;-72
2021/12/17 06:59:10;;;;;;;8.53;6.40;;;8.80;99.90;;;;;;5027223;28;20526;-72
2021/12/17 07:17:32;;;;;;;7.40;5.70;;;8.80;99.90;;;;;;4973329;28;20555;-73
2021/12/17 07:23:04;;;;;;;7.70;5.87;;;8.80;99.90;;;;;;5030395;28;20208;-73
2021/12/17 07:28:57;;;;;;;9.77;6.87;;;8.80;99.90;;;;;;5047444;28;20470;-73
2021/12/17 07:34:13;;;;;;;8.20;6.80;;;8.80;99.90;;;;;;4979686;28;20491;-73
2021/12/17 07:36:44;;;;;;;10.40;5.37;;;8.80;99.90;;;;;;5012971;28;20456;-72
2021/12/17 07:39:17;;;;;;;9.97;6.30;;;8.80;99.90;;;;;;5027900;28;20552;-70
2021/12/17 07:41:55;;;;;;;6.93;5.60;;;8.80;99.90;;;;;;5012662;28;20433;-72
2021/12/17 07:44:50;;;;;;;6.37;4.90;;;8.80;99.90;;;;;;5015212;28;20556;-71
2021/12/17 07:47:24;;;;;;;6.70;4.87;;;8.80;99.90;;;;;;5023820;28;20427;-72
2021/12/17 07:50:10;;;;;;;5.93;5.17;;;8.80;99.90;;;;;;5047987;28;20516;-73
2021/12/17 07:52:59;;;;;;;7.00;5.40;;;8.80;99.90;;;;;;5041444;28;20431;-73
2021/12/17 07:55:33;;;;;;;8.83;6.00;;;8.80;99.90;;;;;;5037493;28;20462;-72
2021/12/17 07:58:06;;;;;;;6.60;4.60;;;8.80;99.90;;;;;;5033735;28;20463;-72
2021/12/17 08:00:38;;;;;;;6.67;5.13;;;8.80;99.90;;;;;;5017617;28;20470;-72
2021/12/17 08:03:07;;;;;;;6.23;4.70;;;8.80;99.90;;;;;;5050829;28;20519;-72
2021/12/17 08:05:51;;;;;;;5.87;5.17;;;8.80;99.90;;;;;;5036182;28;20432;-72
2021/12/17 08:08:20;;;;;;;6.30;4.90;;;8.80;99.90;;;;;;5048041;28;20878;-72
2021/12/17 08:11:02;;;;;;;6.10;5.07;;;8.80;99.90;;;;;;5033526;28;20855;-75
2021/12/17 08:13:33;;;;;;;9.00;5.73;;;8.80;99.90;;;;;;5016162;28;20500;-72
2021/12/17 08:16:16;;;;;;;5.63;5.13;;;8.80;99.90;;;;;;5042536;28;20468;-72
2021/12/17 08:19:08;;;;;;;6.33;5.17;;;8.80;99.90;;;;;;5033075;28;20822;-72
2021/12/17 08:27:31;;;;;;;5.70;4.90;;;8.80;99.90;;;;;;5007148;28;20965;-72
2021/12/17 08:30:21;;;;;;;6.07;3.93;;;8.80;99.90;;;;;;5043002;28;20841;-72
2021/12/17 08:32:54;;;;;;;6.50;4.77;;;8.80;99.90;;;;;;5017079;28;20432;-72
2021/12/17 08:35:22;;;;;;;5.60;4.60;;;8.80;99.90;;;;;;4997721;28;20831;-73
2021/12/17 08:37:55;;;;;;;5.83;5.10;;;8.80;99.90;;;;;;4999729;28;20563;-72
2021/12/17 08:40:26;;;;;;;6.93;5.00;;;8.80;99.90;;;;;;5014795;28;20443;-73
2021/12/17 08:42:57;;;;;;;6.87;4.90;;;8.80;99.90;;;;;;5044106;28;20822;-72
2021/12/17 08:45:27;;;;;;;6.23;5.20;;;8.80;99.90;;;;;;5013489;28;20569;-72
2021/12/17 08:48:14;;;;;;;8.93;5.80;;;8.80;99.90;;;;;;5030359;28;20988;-72
2021/12/17 08:50:48;;;;;;;5.60;4.87;;;8.80;99.90;;;;;;4997141;28;20972;-72
2021/12/17 08:53:16;;;;;;;6.67;4.73;;;8.80;99.90;;;;;;5004053;28;20464;-72
2021/12/17 08:55:45;;;;;;;6.60;4.40;;;8.80;99.90;;;;;;5018420;28;20548;-73
2021/12/17 08:58:16;;;;;;;5.83;5.10;;;8.80;99.90;;;;;;5013202;28;20475;-72
2021/12/17 09:00:48;;;;;;;4.63;4.13;;;8.80;99.90;;;;;;5042629;28;20509;-72
2021/12/17 09:03:23;;;;;;;5.83;4.40;;;8.80;99.90;;;;;;5030072;28;20473;-70
2021/12/17 09:06:01;;;;;;;5.43;4.47;;;8.80;99.90;;;;;;5011521;28;20853;-72
2021/12/17 09:08:37;;;;;;;6.78;4.35;;;8.80;99.90;;;;;;5022798;28;20314;-72
2021/12/17 09:11:08;;;;;;;5.47;4.30;;;8.80;99.90;;;;;;5044442;28;20267;-72
2021/12/17 09:14:04;;;;;;;7.37;5.70;;;8.80;99.90;;;;;;5017944;28;20564;-73
2021/12/17 09:16:58;;;;;;;5.77;4.73;;;8.80;99.90;;;;;;5026735;28;21037;-72
2021/12/17 09:19:32;;;;;;;6.20;4.10;;;8.80;99.90;;;;;;5011128;28;20469;-72
2021/12/17 09:22:06;;;;;;;5.40;4.47;;;8.80;99.90;;;;;;5017799;28;20453;-72
2021/12/17 09:24:48;;;;;;;7.90;5.17;;;8.80;99.90;;;;;;5032320;28;20522;-72
2021/12/17 09:27:19;;;;;;;4.97;4.37;;;8.80;99.90;;;;;;5037322;28;20427;-73
2021/12/17 09:30:11;;;;;;;6.67;4.77;;;8.80;99.90;;;;;;5033778;28;20852;-73
2021/12/17 09:32:40;;;;;;;8.70;7.38;;;8.80;99.90;;;;;;5042936;28;20445;-72
2021/12/17 09:35:14;;;;;;;9.23;6.50;;;8.90;99.90;;;;;;5021719;28;20223;-73
2021/12/17 09:37:43;;;;;;;8.80;4.63;;;8.90;99.90;;;;;;5034680;28;20193;-72
2021/12/17 09:40:13;;;;;;;7.67;6.07;;;8.80;99.90;;;;;;5018735;28;20521;-72
2021/12/17 09:42:43;;;;;;;7.67;5.43;;;8.90;99.90;;;;;;5042177;28;20526;-66
2021/12/17 09:45:15;;;;;;;6.70;5.53;;;8.80;99.90;;;;;;5033749;28;20498;-68
2021/12/17 09:47:44;;;;;;;7.70;6.17;;;8.80;99.90;;;;;;5025299;28;20450;-67
2021/12/17 09:50:15;;;;;;;7.87;5.93;;;8.90;99.90;;;;;;5014231;28;20545;-66
2021/12/17 09:52:43;;;;;;;5.80;5.03;;;8.90;99.90;;;;;;5029762;28;20817;-66
2021/12/17 09:55:12;;;;;;;8.00;5.33;;;8.80;99.90;;;;;;5023234;28;20226;-66
2021/12/17 09:57:40;;;;;;;5.00;4.33;;;8.80;99.90;;;;;;5013762;28;20429;-67
2021/12/17 10:00:15;;;;;;;8.90;4.90;;;8.90;99.90;;;;;;5023809;28;20479;-67
2021/12/17 10:02:44;;;;;;;6.10;4.30;;;8.80;99.90;;;;;;5022746;28;20973;-70
2021/12/17 10:05:15;;;;;;;5.77;5.10;;;8.90;99.90;;;;;;5019484;28;20450;-68
2021/12/17 10:07:45;;;;;;;7.33;5.20;;;8.80;99.90;;;;;;5033162;28;20965;-69
2021/12/17 10:10:16;;;;;;;5.30;4.47;;;8.80;99.90;;;;;;5016768;28;20460;-66
2021/12/17 10:12:45;;;;;;;6.03;4.57;;;8.80;99.90;;;;;;5032485;28;20523;-66
2021/12/17 10:15:18;;;;;;;5.47;4.20;;;8.80;99.90;;;;;;5024085;28;20965;-66
2021/12/17 10:17:54;;;;;;;4.97;4.17;;;8.90;99.90;;;;;;5029049;28;20439;-66
2021/12/17 10:20:23;;;;;;;7.00;3.80;;;8.80;99.90;;;;;;5022410;28;20475;-66
2021/12/17 10:22:57;;;;;;;5.77;3.87;;;8.80;99.90;;;;;;5023426;28;20890;-67
2021/12/17 10:25:26;;;;;;;6.33;4.53;;;8.80;99.90;;;;;;5053635;28;20925;-66
2021/12/17 10:27:59;;;;;;;4.67;4.00;;;8.80;99.90;;;;;;5040134;28;20918;-67
2021/12/17 10:30:29;;;;;;;5.00;4.23;;;8.80;99.90;;;;;;5037280;28;20463;-65
2021/12/17 10:33:00;;;;;;;4.53;3.93;;;8.80;99.90;;;;;;5047113;28;20431;-66
2021/12/17 10:35:29;;;;;;;5.20;4.23;;;8.80;99.90;;;;;;5019647;28;20449;-66
2021/12/17 10:38:02;;;;;;;4.93;4.43;;;8.80;99.90;;;;;;5012423;28;20440;-66
2021/12/17 10:40:33;;;;;;;6.10;4.93;;;8.80;99.90;;;;;;5029564;28;20471;-67
2021/12/17 10:43:08;;;;;;;7.00;5.30;;;8.90;99.90;;;;;;5033046;28;20442;-66
2021/12/17 10:45:42;;;;;;;6.00;5.10;;;8.90;99.90;;;;;;5031688;28;20453;-66
2021/12/17 10:51:29;;;;;;;7.03;5.40;;;8.80;99.90;;;;;;4952977;29;20448;-67
2021/12/17 10:54:00;;;;;;;6.20;4.37;;;8.90;99.90;;;;;;5023804;28;21045;-66
2021/12/17 10:56:32;;;;;;;5.33;4.80;;;8.90;99.90;;;;;;5016015;28;20440;-65
2021/12/17 10:59:03;;;;;;;5.17;4.60;;;8.80;99.90;;;;;;5031861;28;20467;-67
2021/12/17 11:01:40;;;;;;;7.07;5.40;;;8.90;99.90;;;;;;5033159;28;20435;-65
2021/12/17 11:04:18;;;;;;;6.53;4.23;;;8.80;99.90;;;;;;5032254;28;20473;-65
2021/12/17 11:06:53;;;;;;;5.53;4.30;;;8.90;99.90;;;;;;5033291;28;20425;-66
2021/12/17 11:09:44;;;;;;;6.03;4.53;;;8.80;99.90;;;;;;5031436;28;20803;-68
2021/12/17 11:12:31;;;;;;;5.67;5.13;;;8.80;99.90;;;;;;5029540;28;20448;-66
2021/12/17 11:15:13;;;;;;;4.53;3.90;;;8.80;99.90;;;;;;5002434;28;20574;-66
2021/12/17 11:17:44;;;;;;;5.83;4.30;;;8.80;99.90;;;;;;5014012;28;20433;-68
2021/12/17 11:20:14;;;;;;;6.10;4.20;;;8.80;99.90;;;;;;5029357;28;20471;-67
2021/12/17 11:22:44;;;;;;;5.77;4.70;;;8.80;99.90;;;;;;5031885;28;20445;-67
2021/12/17 11:25:13;;;;;;;5.77;4.50;;;8.80;99.90;;;;;;5012654;28;21041;-65
2021/12/17 11:27:42;;;;;;;5.23;4.30;;;8.80;99.90;;;;;;5028276;28;20456;-67
2021/12/17 11:30:13;;;;;;;5.60;4.80;;;8.90;99.90;;;;;;5046726;28;20471;-67
2021/12/17 11:32:45;;;;;;;5.30;3.53;;;8.80;99.90;;;;;;5032621;28;20807;-66
2021/12/17 11:35:16;;;;;;;4.70;3.93;;;8.80;99.90;;;;;;5032543;28;20531;-66
2021/12/17 11:37:47;;;;;;;5.47;3.90;;;8.80;99.90;;;;;;5026822;28;20449;-68
2021/12/17 11:40:23;;;;;;;5.27;3.90;;;8.80;99.90;;;;;;5012426;28;20962;-66
2021/12/17 11:43:16;;;;;;;12.20;6.17;;;8.80;99.90;;;;;;5010868;28;20500;-65
2021/12/17 11:45:46;;;;;;;3.83;3.43;;;8.80;99.90;;;;;;5030139;28;20458;-66
2021/12/17 11:48:21;;;;;;;3.57;3.23;;;8.80;99.90;;;;;;5031075;28;20456;-67
2021/12/17 11:51:04;;;;;;;4.57;4.03;;;8.80;99.90;;;;;;5030633;28;20448;-66
2021/12/17 11:53:34;;;;;;;4.80;3.90;;;8.80;99.90;;;;;;5031352;28;20459;-66
2021/12/17 11:56:04;;;;;;;6.20;4.40;;;8.80;99.90;;;;;;5032584;28;20431;-66
2021/12/17 11:58:48;;;;;;;5.90;3.70;;;8.80;99.90;;;;;;5031006;28;20970;-67
2021/12/17 12:01:51;;;;;;;5.00;4.30;;;8.90;99.90;;;;;;5012195;28;20460;-66
2021/12/17 12:04:40;;;;;;;7.50;4.80;;;8.80;99.90;;;;;;4999158;28;20815;-65
2021/12/17 12:07:10;;;;;;;4.50;3.83;;;8.80;99.90;;;;;;5011170;28;20515;-67
2021/12/17 12:10:09;;;;;;;5.30;4.50;;;8.80;99.90;;;;;;5029389;28;20463;-68
2021/12/17 12:12:58;;;;;;;3.77;3.40;;;8.80;99.90;;;;;;5050807;28;20423;-67
2021/12/17 12:15:42;;;;;;;4.63;4.10;;;8.90;99.90;;;;;;5016155;28;20476;-66
2021/12/17 12:18:22;;;;;;;4.18;3.55;;;8.90;99.90;;;;;;5010319;28;20462;-66
2021/12/17 12:20:58;;;;;;;5.07;4.03;;;8.80;99.90;;;;;;5012070;28;20311;-68
2021/12/17 12:23:47;;;;;;;5.70;4.23;;;8.80;99.90;;;;;;5019019;28;20485;-65
2021/12/17 12:26:48;;;;;;;4.03;3.63;;;8.90;99.90;;;;;;5031775;28;20432;-67
2021/12/17 12:29:19;;;;;;;4.10;3.57;;;8.90;99.90;;;;;;5013101;28;20533;-66
2021/12/17 12:31:59;;;;;;;4.20;3.80;;;8.80;99.90;;;;;;5014227;28;20424;-65
2021/12/17 12:34:40;;;;;;;4.30;3.90;;;8.80;99.90;;;;;;5027123;28;20463;-66
2021/12/17 12:37:28;;;;;;;4.33;3.83;;;8.80;99.90;;;;;;5051986;28;20437;-67
2021/12/17 12:40:22;;;;;;;5.27;3.77;;;8.80;99.90;;;;;;5050004;28;20481;-67
2021/12/17 12:42:53;;;;;;;5.70;4.10;;;8.80;99.90;;;;;;5051061;28;20419;-66
2021/12/17 12:45:23;;;;;;;4.87;4.07;;;8.80;99.90;;;;;;5034394;28;20808;-66
2021/12/17 12:47:58;;;;;;;5.17;3.90;;;8.80;99.90;;;;;;5030043;28;20434;-68
2021/12/17 12:50:29;;;;;;;4.20;3.63;;;8.80;99.90;;;;;;5013673;28;20448;-67
2021/12/17 12:53:02;;;;;;;4.40;4.00;;;8.80;99.90;;;;;;5039186;28;20443;-68
2021/12/17 12:55:33;;;;;;;5.07;4.10;;;8.80;99.90;;;;;;5035849;28;20423;-67
2021/12/17 12:58:08;;;;;;;6.73;4.57;;;8.80;99.90;;;;;;5052515;28;20934;-66
2021/12/17 13:00:42;;;;;;;5.50;3.90;;;8.80;99.90;;;;;;5054591;28;21052;-67
2021/12/17 13:03:13;;;;;;;4.67;4.17;;;8.80;99.90;;;;;;5053783;28;20454;-66
2021/12/17 13:05:43;;;;;;;3.90;3.53;;;8.80;99.90;;;;;;5054148;28;20449;-66
2021/12/17 13:08:16;;;;;;;5.27;4.20;;;8.80;99.90;;;;;;5054735;28;20536;-67
2021/12/17 13:10:49;;;;;;;5.00;4.10;;;8.80;99.90;;;;;;5054689;28;20955;-66
2021/12/17 13:13:22;;;;;;;4.30;3.50;;;8.80;99.90;;;;;;5036994;28;20458;-66
2021/12/17 13:16:07;;;;;;;4.13;3.30;;;8.80;99.90;;;;;;5019973;28;20467;-67
2021/12/17 13:21:46;;;;;;;3.83;3.53;;;8.80;99.90;;;;;;5054859;28;20466;-67
2021/12/17 13:24:25;;;;;;;4.07;3.33;;;8.80;99.90;;;;;;5053940;28;20863;-67
2021/12/17 13:26:56;;;;;;;6.70;4.03;;;8.80;99.90;;;;;;5055243;28;20427;-67
2021/12/17 13:29:28;;;;;;;4.10;3.70;;;8.80;99.90;;;;;;5053712;28;20497;-66
2021/12/17 13:31:59;;;;;;;4.50;3.70;;;8.80;99.90;;;;;;5054873;28;20824;-66
2021/12/17 13:34:34;;;;;;;5.20;3.90;;;8.80;99.90;;;;;;5052782;28;20463;-66
2021/12/17 13:37:07;;;;;;;3.77;3.40;;;8.80;99.90;;;;;;5051098;28;20498;-66
2021/12/17 13:39:39;;;;;;;4.83;4.07;;;8.80;99.90;;;;;;5035431;28;21019;-67
2021/12/17 13:42:09;;;;;;;4.43;3.33;;;8.80;99.90;;;;;;5034501;28;20519;-67
2021/12/17 13:44:41;;;;;;;4.60;3.80;;;8.80;99.90;;;;;;5021746;28;20477;-66
2021/12/17 13:47:28;;;;;;;4.73;3.40;;;8.80;99.90;;;;;;5034577;28;20432;-67
2021/12/17 13:50:01;;;;;;;6.40;4.50;;;8.80;99.90;;;;;;5033905;28;20462;-65
2021/12/17 13:52:38;;;;;;;4.67;4.17;;;8.80;99.90;;;;;;5038320;28;20439;-67
2021/12/17 13:55:11;;;;;;;4.30;3.33;;;8.80;99.90;;;;;;5052355;28;20987;-66
2021/12/17 13:57:42;;;;;;;3.43;3.13;;;8.80;99.90;;;;;;5054554;28;20412;-67
2021/12/17 14:00:14;;;;;;;4.17;3.30;;;8.80;99.90;;;;;;5053025;28;20524;-66
2021/12/17 14:02:45;;;;;;;4.23;3.30;;;8.80;99.90;;;;;;5053959;28;20813;-67
2021/12/17 14:05:19;;;;;;;4.70;4.10;;;8.80;99.90;;;;;;5033769;28;20441;-67
2021/12/17 14:07:50;;;;;;;4.10;3.73;;;8.80;99.90;;;;;;5034225;28;20460;-66
2021/12/17 14:10:23;;;;;;;3.70;3.33;;;8.80;99.90;;;;;;5052967;28;20459;-67
2021/12/17 14:12:52;;;;;;;4.07;3.67;;;8.80;99.90;;;;;;5034919;28;20477;-66
2021/12/17 14:15:43;;;;;;;4.40;3.53;;;8.80;99.90;;;;;;5016307;28;20456;-66
2021/12/17 14:18:14;;;;;;;3.43;3.10;;;8.80;99.90;;;;;;5013842;28;20467;-68
2021/12/17 14:20:45;;;;;;;5.03;3.70;;;8.80;99.90;;;;;;5014064;28;20469;-68
2021/12/17 14:23:16;;;;;;;4.00;3.17;;;8.80;99.90;;;;;;5014101;28;20469;-67
2021/12/17 14:25:48;;;;;;;4.33;3.80;;;8.80;99.90;;;;;;5012653;28;20465;-67
2021/12/17 14:28:19;;;;;;;4.30;3.43;;;8.80;99.90;;;;;;5013244;28;20476;-67
2021/12/17 14:30:56;;;;;;;4.30;2.90;;;8.80;99.90;;;;;;5014652;28;20468;-67
2021/12/17 14:33:29;;;;;;;4.43;3.30;;;8.80;99.90;;;;;;5015831;28;20467;-67
2021/12/17 14:36:00;;;;;;;4.77;3.40;;;8.80;99.90;;;;;;5019928;28;20436;-66
2021/12/17 14:38:40;;;;;;;4.70;3.80;;;8.80;99.90;;;;;;5031482;28;21115;-66
2021/12/17 14:41:15;;;;;;;6.53;5.07;;;8.90;99.90;;;;;;5013539;28;20475;-68
2021/12/17 14:43:49;;;;;;;5.20;3.87;;;8.90;99.90;;;;;;5030998;28;20565;-66
2021/12/17 14:46:23;;;;;;;7.83;5.40;;;9.00;99.90;;;;;;5020090;28;21040;-66
2021/12/17 14:49:16;;;;;;;5.37;4.87;;;9.00;99.90;;;;;;5031875;28;20838;-66
2021/12/17 15:00:26;;;;;;;6.17;3.97;;;9.10;99.90;;;;;;5022386;28;20866;-67
2021/12/17 15:03:00;;;;;;;7.37;3.73;;;9.20;99.90;;;;;;5014318;28;20466;-66
2021/12/17 15:05:31;;;;;;;5.37;4.40;;;9.20;99.90;;;;;;5021169;28;20465;-65
2021/12/17 15:08:02;;;;;;;4.97;3.40;;;9.30;99.90;;;;;;5014166;28;20456;-67
2021/12/17 15:10:30;;;;;;;4.30;3.70;;;9.30;99.90;;;;;;5032335;28;20942;-66
2021/12/17 15:13:01;;;;;;;6.20;4.10;;;9.30;99.90;;;;;;5019124;28;20481;-66
2021/12/17 15:15:35;;;;;;;4.60;3.60;;;9.30;99.90;;;;;;5029547;28;20502;-66
2021/12/17 15:18:09;;;;;;;3.93;3.53;;;9.30;99.90;;;;;;5014574;28;20478;-68
2021/12/17 15:20:40;;;;;;;7.00;3.60;;;9.30;99.90;;;;;;5032164;28;20563;-68
2021/12/17 15:23:08;;;;;;;4.77;3.70;;;9.30;99.90;;;;;;5025039;28;20468;-68
2021/12/17 15:25:39;;;;;;;5.53;3.77;;;9.30;99.90;;;;;;5025102;28;20440;-69
2021/12/17 15:28:09;;;;;;;5.50;4.30;;;9.30;99.90;;;;;;5032349;28;20456;-66
2021/12/17 15:30:40;;;;;;;4.40;3.87;;;9.30;99.90;;;;;;5020896;28;20843;-66
2021/12/17 15:33:09;;;;;;;4.90;4.20;;;9.40;99.90;;;;;;5029596;28;20473;-65
2021/12/17 15:35:38;;;;;;;5.73;4.83;;;9.40;99.90;;;;;;5014996;28;20846;-65
2021/12/17 15:38:09;;;;;;;8.47;5.50;;;9.40;99.90;;;;;;5030271;28;20559;-67
2021/12/17 15:40:39;;;;;;;9.83;6.57;;;9.40;99.90;;;;;;5028334;28;20858;-67
2021/12/17 15:43:09;;;;;;;4.40;3.67;;;9.40;99.90;;;;;;5031930;28;20819;-66
2021/12/17 15:45:43;;;;;;;6.43;4.30;;;9.40;99.90;;;;;;5030876;28;20436;-65
2021/12/17 15:48:15;;;;;;;5.80;4.83;;;9.30;99.90;;;;;;5023983;28;20464;-65
2021/12/17 15:51:02;;;;;;;6.03;4.53;;;9.40;99.90;;;;;;5040034;28;20475;-68
2021/12/17 15:53:30;;;;;;;5.80;4.60;;;9.30;99.90;;;;;;5046421;28;20542;-66
2021/12/17 15:55:58;;;;;;;5.77;4.20;;;9.30;99.90;;;;;;5032547;28;20431;-68
2021/12/17 15:58:28;;;;;;;7.93;5.03;;;9.40;99.90;;;;;;5026298;28;20974;-67